sensor_id;sensor_type;location;lat;lon;timestamp;temperature;humidity
11855;DHT22;5987;53.140;8.904;2024-03-08T00:01:18;2.80;99.90
11855;DHT22;5987;53.140;8.904;2024-03-08T00:04:23;2.80;99.90
11855;DHT22;5987;53.140;8.904;2024-03-08T00:07:28;2.70;99.90
11855;DHT22;5987;53.140;8.904;2024-03-08T00:10:32;2.70;99.90
11855;DHT22;5987;53.140;8.904;2024-03-08T00:13:36;2.70;99.90
11855;DHT22;5987;53.140;8.904;2024-03-08T00:16:39;2.70;99.90
11855;DHT22;5987;53.140;8.904;2024-03-08T00:19:47;2.70;99.90
11855;DHT22;5987;53.140;8.904;2024-03-08T00:22:51;2.70;99.90
11855;DHT22;5987;53.140;8.904;2024-03-08T00:25:55;2.70;99.90
11855;DHT22;5987;53.140;8.904;2024-03-08T00:28:59;2.60;99.90
11855;DHT22;5987;53.140;8.904;2024-03-08T00:32:03;2.60;99.90
11855;DHT22;5987;53.140;8.904;2024-03-08T00:35:08;2.60;99.90
11855;DHT22;5987;53.140;8.904;2024-03-08T00:38:13;2.60;99.90
11855;DHT22;5987;53.140;8.904;2024-03-08T00:41:17;2.50;99.90
11855;DHT22;5987;53.140;8.904;2024-03-08T00:44:21;2.50;99.90
11855;DHT22;5987;53.140;8.904;2024-03-08T00:47:25;2.50;99.90
11855;DHT22;5987;53.140;8.904;2024-03-08T00:50:30;2.40;99.90
11855;DHT22;5987;53.140;8.904;2024-03-08T00:53:36;2.40;99.90
11855;DHT22;5987;53.140;8.904;2024-03-08T00:56:39;2.40;99.90
11855;DHT22;5987;53.140;8.904;2024-03-08T00:59:43;2.50;99.90
11855;DHT22;5987;53.140;8.904;2024-03-08T01:02:47;2.50;99.90
11855;DHT22;5987;53.140;8.904;2024-03-08T01:05:52;2.50;99.90
11855;DHT22;5987;53.140;8.904;2024-03-08T01:08:56;2.40;99.90
11855;DHT22;5987;53.140;8.904;2024-03-08T01:12:00;2.40;99.90
11855;DHT22;5987;53.140;8.904;2024-03-08T01:15:05;2.40;99.90
11855;DHT22;5987;53.140;8.904;2024-03-08T01:18:10;2.30;99.90
11855;DHT22;5987;53.140;8.904;2024-03-08T01:21:16;2.30;99.90
11855;DHT22;5987;53.140;8.904;2024-03-08T01:24:19;2.30;99.90
11855;DHT22;5987;53.140;8.904;2024-03-08T01:27:23;2.30;99.90
11855;DHT22;5987;53.140;8.904;2024-03-08T01:30:27;2.30;99.90
11855;DHT22;5987;53.140;8.904;2024-03-08T01:33:31;2.30;99.90
11855;DHT22;5987;53.140;8.904;2024-03-08T01:36:36;2.30;99.90
11855;DHT22;5987;53.140;8.904;2024-03-08T01:39:40;2.30;99.90
11855;DHT22;5987;53.140;8.904;2024-03-08T01:42:44;2.30;99.90
11855;DHT22;5987;53.140;8.904;2024-03-08T01:45:48;2.30;99.90
11855;DHT22;5987;53.140;8.904;2024-03-08T01:48:52;2.30;99.90
11855;DHT22;5987;53.140;8.904;2024-03-08T01:51:57;2.30;99.90
11855;DHT22;5987;53.140;8.904;2024-03-08T01:55:03;2.30;99.90
11855;DHT22;5987;53.140;8.904;2024-03-08T01:58:10;2.30;99.90
11855;DHT22;5987;53.140;8.904;2024-03-08T02:01:15;2.30;99.90
11855;DHT22;5987;53.140;8.904;2024-03-08T02:04:21;2.20;99.90
11855;DHT22;5987;53.140;8.904;2024-03-08T02:07:27;2.20;99.90
11855;DHT22;5987;53.140;8.904;2024-03-08T02:10:31;2.20;99.90
11855;DHT22;5987;53.140;8.904;2024-03-08T02:13:35;2.20;99.90
11855;DHT22;5987;53.140;8.904;2024-03-08T02:16:39;2.20;99.90
11855;DHT22;5987;53.140;8.904;2024-03-08T02:19:43;2.20;99.90
11855;DHT22;5987;53.140;8.904;2024-03-08T02:22:48;2.20;99.90
11855;DHT22;5987;53.140;8.904;2024-03-08T02:25:54;2.10;99.90
11855;DHT22;5987;53.140;8.904;2024-03-08T02:28:59;2.20;99.90
11855;DHT22;5987;53.140;8.904;2024-03-08T02:32:03;2.10;99.90
11855;DHT22;5987;53.140;8.904;2024-03-08T02:35:07;2.10;99.90
11855;DHT22;5987;53.140;8.904;2024-03-08T02:38:12;2.10;99.90
11855;DHT22;5987;53.140;8.904;2024-03-08T02:41:18;2.00;99.90
11855;DHT22;5987;53.140;8.904;2024-03-08T02:44:21;2.10;99.90
11855;DHT22;5987;53.140;8.904;2024-03-08T02:47:25;2.10;99.90
11855;DHT22;5987;53.140;8.904;2024-03-08T02:50:29;2.10;99.90
11855;DHT22;5987;53.140;8.904;2024-03-08T02:53:34;2.00;99.90
11855;DHT22;5987;53.140;8.904;2024-03-08T02:56:38;2.00;99.90
11855;DHT22;5987;53.140;8.904;2024-03-08T02:59:43;2.00;99.90
11855;DHT22;5987;53.140;8.904;2024-03-08T03:02:48;2.00;99.90
11855;DHT22;5987;53.140;8.904;2024-03-08T03:05:54;2.00;99.90
11855;DHT22;5987;53.140;8.904;2024-03-08T03:08:59;2.00;99.90
11855;DHT22;5987;53.140;8.904;2024-03-08T03:12:04;2.00;99.90
11855;DHT22;5987;53.140;8.904;2024-03-08T03:15:11;2.00;99.90
11855;DHT22;5987;53.140;8.904;2024-03-08T03:18:16;2.00;99.90
11855;DHT22;5987;53.140;8.904;2024-03-08T03:21:23;2.00;99.90
11855;DHT22;5987;53.140;8.904;2024-03-08T03:24:28;1.90;99.90
11855;DHT22;5987;53.140;8.904;2024-03-08T03:27:32;1.90;99.90
11855;DHT22;5987;53.140;8.904;2024-03-08T03:30:36;2.00;99.90
11855;DHT22;5987;53.140;8.904;2024-03-08T03:33:41;1.90;99.90
11855;DHT22;5987;53.140;8.904;2024-03-08T03:36:45;1.90;99.90
11855;DHT22;5987;53.140;8.904;2024-03-08T03:39:50;1.80;99.90
11855;DHT22;5987;53.140;8.904;2024-03-08T03:42:55;1.80;99.90
11855;DHT22;5987;53.140;8.904;2024-03-08T03:45:59;1.90;99.90
11855;DHT22;5987;53.140;8.904;2024-03-08T03:49:03;1.80;99.90
11855;DHT22;5987;53.140;8.904;2024-03-08T03:52:07;1.80;99.90
11855;DHT22;5987;53.140;8.904;2024-03-08T03:55:12;1.80;99.90
11855;DHT22;5987;53.140;8.904;2024-03-08T03:58:16;1.70;99.90
11855;DHT22;5987;53.140;8.904;2024-03-08T04:01:24;1.80;99.90
11855;DHT22;5987;53.140;8.904;2024-03-08T04:04:28;1.70;99.90
11855;DHT22;5987;53.140;8.904;2024-03-08T04:07:32;1.70;99.90
11855;DHT22;5987;53.140;8.904;2024-03-08T04:10:37;1.70;99.90
11855;DHT22;5987;53.140;8.904;2024-03-08T04:13:43;1.70;99.90
11855;DHT22;5987;53.140;8.904;2024-03-08T04:16:47;1.70;99.90
11855;DHT22;5987;53.140;8.904;2024-03-08T04:19:51;1.60;99.90
11855;DHT22;5987;53.140;8.904;2024-03-08T04:22:55;1.60;99.90
11855;DHT22;5987;53.140;8.904;2024-03-08T04:26:01;1.60;99.90
11855;DHT22;5987;53.140;8.904;2024-03-08T04:29:06;1.60;99.90
11855;DHT22;5987;53.140;8.904;2024-03-08T04:32:10;1.50;99.90
11855;DHT22;5987;53.140;8.904;2024-03-08T04:35:16;1.50;99.90
11855;DHT22;5987;53.140;8.904;2024-03-08T04:38:21;1.50;99.90
11855;DHT22;5987;53.140;8.904;2024-03-08T04:41:26;1.50;99.90
11855;DHT22;5987;53.140;8.904;2024-03-08T04:44:30;1.50;99.90
11855;DHT22;5987;53.140;8.904;2024-03-08T04:47:35;1.50;99.90
11855;DHT22;5987;53.140;8.904;2024-03-08T04:50:39;1.50;99.90
11855;DHT22;5987;53.140;8.904;2024-03-08T04:53:43;1.40;99.90
11855;DHT22;5987;53.140;8.904;2024-03-08T04:56:49;1.30;99.90
11855;DHT22;5987;53.140;8.904;2024-03-08T04:59:52;1.30;99.90
11855;DHT22;5987;53.140;8.904;2024-03-08T05:02:56;1.30;99.90
11855;DHT22;5987;53.140;8.904;2024-03-08T05:06:00;1.40;99.90
11855;DHT22;5987;53.140;8.904;2024-03-08T05:09:04;1.30;99.90
11855;DHT22;5987;53.140;8.904;2024-03-08T05:12:17;1.30;99.90
11855;DHT22;5987;53.140;8.904;2024-03-08T05:15:22;1.20;99.90
11855;DHT22;5987;53.140;8.904;2024-03-08T05:18:26;1.20;99.90
11855;DHT22;5987;53.140;8.904;2024-03-08T05:21:31;1.20;99.90
11855;DHT22;5987;53.140;8.904;2024-03-08T05:24:35;1.20;99.90
11855;DHT22;5987;53.140;8.904;2024-03-08T05:27:40;1.20;99.90
11855;DHT22;5987;53.140;8.904;2024-03-08T05:30:44;1.20;99.90
11855;DHT22;5987;53.140;8.904;2024-03-08T05:33:49;1.10;99.90
11855;DHT22;5987;53.140;8.904;2024-03-08T05:36:53;1.10;99.90
11855;DHT22;5987;53.140;8.904;2024-03-08T05:39:57;1.10;99.90
11855;DHT22;5987;53.140;8.904;2024-03-08T05:43:02;1.20;99.90
11855;DHT22;5987;53.140;8.904;2024-03-08T05:46:07;1.10;99.90
11855;DHT22;5987;53.140;8.904;2024-03-08T05:49:12;1.10;99.90
11855;DHT22;5987;53.140;8.904;2024-03-08T05:52:17;1.10;99.90
11855;DHT22;5987;53.140;8.904;2024-03-08T05:55:21;1.10;99.90
11855;DHT22;5987;53.140;8.904;2024-03-08T05:58:28;1.10;99.90
11855;DHT22;5987;53.140;8.904;2024-03-08T06:01:33;1.10;99.90
11855;DHT22;5987;53.140;8.904;2024-03-08T06:04:38;1.10;99.90
11855;DHT22;5987;53.140;8.904;2024-03-08T06:07:44;1.20;99.90
11855;DHT22;5987;53.140;8.904;2024-03-08T06:10:48;1.10;99.90
11855;DHT22;5987;53.140;8.904;2024-03-08T06:13:56;1.10;99.90
11855;DHT22;5987;53.140;8.904;2024-03-08T06:17:02;1.20;99.90
11855;DHT22;5987;53.140;8.904;2024-03-08T06:20:08;1.10;99.90
11855;DHT22;5987;53.140;8.904;2024-03-08T06:23:16;1.20;99.90
11855;DHT22;5987;53.140;8.904;2024-03-08T06:26:20;1.20;99.90
11855;DHT22;5987;53.140;8.904;2024-03-08T06:29:26;1.20;99.90
11855;DHT22;5987;53.140;8.904;2024-03-08T06:32:30;1.20;99.90
11855;DHT22;5987;53.140;8.904;2024-03-08T06:35:35;1.20;99.90
11855;DHT22;5987;53.140;8.904;2024-03-08T06:38:39;1.20;99.90
11855;DHT22;5987;53.140;8.904;2024-03-08T06:41:44;1.30;99.90
11855;DHT22;5987;53.140;8.904;2024-03-08T06:44:50;1.40;99.90
11855;DHT22;5987;53.140;8.904;2024-03-08T06:47:54;1.50;99.90
11855;DHT22;5987;53.140;8.904;2024-03-08T06:50:59;1.50;99.90
11855;DHT22;5987;53.140;8.904;2024-03-08T06:54:03;1.60;99.90
11855;DHT22;5987;53.140;8.904;2024-03-08T06:57:11;1.60;99.90
11855;DHT22;5987;53.140;8.904;2024-03-08T07:00:18;1.70;99.90
11855;DHT22;5987;53.140;8.904;2024-03-08T07:03:23;1.70;99.90
11855;DHT22;5987;53.140;8.904;2024-03-08T07:06:28;1.80;99.90
11855;DHT22;5987;53.140;8.904;2024-03-08T07:09:35;1.90;99.90
11855;DHT22;5987;53.140;8.904;2024-03-08T07:12:39;1.90;99.90
11855;DHT22;5987;53.140;8.904;2024-03-08T07:15:44;2.00;99.90
11855;DHT22;5987;53.140;8.904;2024-03-08T07:18:48;2.10;99.90
11855;DHT22;5987;53.140;8.904;2024-03-08T07:21:54;2.10;99.90
11855;DHT22;5987;53.140;8.904;2024-03-08T07:24:58;2.30;99.90
11855;DHT22;5987;53.140;8.904;2024-03-08T07:28:21;2.30;99.90
11855;DHT22;5987;53.140;8.904;2024-03-08T07:31:27;2.40;99.90
11855;DHT22;5987;53.140;8.904;2024-03-08T07:34:47;2.30;99.90
11855;DHT22;5987;53.140;8.904;2024-03-08T07:37:52;2.40;99.90
11855;DHT22;5987;53.140;8.904;2024-03-08T07:40:57;2.60;99.90
11855;DHT22;5987;53.140;8.904;2024-03-08T07:44:00;2.60;99.90
11855;DHT22;5987;53.140;8.904;2024-03-08T07:47:07;2.70;99.90
11855;DHT22;5987;53.140;8.904;2024-03-08T07:50:11;2.80;99.90
11855;DHT22;5987;53.140;8.904;2024-03-08T07:53:18;2.80;99.90
11855;DHT22;5987;53.140;8.904;2024-03-08T07:56:22;2.90;99.90
11855;DHT22;5987;53.140;8.904;2024-03-08T07:59:27;3.00;99.90
11855;DHT22;5987;53.140;8.904;2024-03-08T08:02:33;3.10;99.90
11855;DHT22;5987;53.140;8.904;2024-03-08T08:05:41;3.10;99.90
11855;DHT22;5987;53.140;8.904;2024-03-08T08:08:45;3.20;99.90
11855;DHT22;5987;53.140;8.904;2024-03-08T08:11:49;3.30;99.90
11855;DHT22;5987;53.140;8.904;2024-03-08T08:14:53;3.40;99.90
11855;DHT22;5987;53.140;8.904;2024-03-08T08:17:58;3.50;99.90
11855;DHT22;5987;53.140;8.904;2024-03-08T08:21:02;3.50;99.90
11855;DHT22;5987;53.140;8.904;2024-03-08T08:24:08;3.60;99.90
11855;DHT22;5987;53.140;8.904;2024-03-08T08:27:13;3.80;99.90
11855;DHT22;5987;53.140;8.904;2024-03-08T08:30:17;3.90;99.90
11855;DHT22;5987;53.140;8.904;2024-03-08T08:33:23;4.10;99.90
11855;DHT22;5987;53.140;8.904;2024-03-08T08:36:27;4.20;99.90
11855;DHT22;5987;53.140;8.904;2024-03-08T08:39:32;4.10;99.90
11855;DHT22;5987;53.140;8.904;2024-03-08T08:42:36;4.30;99.90
11855;DHT22;5987;53.140;8.904;2024-03-08T08:45:40;4.40;99.90
11855;DHT22;5987;53.140;8.904;2024-03-08T08:48:46;4.50;99.90
11855;DHT22;5987;53.140;8.904;2024-03-08T08:51:50;4.50;99.90
11855;DHT22;5987;53.140;8.904;2024-03-08T08:54:57;4.60;99.90
11855;DHT22;5987;53.140;8.904;2024-03-08T08:58:01;4.70;99.90
11855;DHT22;5987;53.140;8.904;2024-03-08T09:01:06;4.80;99.90
11855;DHT22;5987;53.140;8.904;2024-03-08T09:04:11;4.90;99.90
11855;DHT22;5987;53.140;8.904;2024-03-08T09:07:16;5.00;99.90
11855;DHT22;5987;53.140;8.904;2024-03-08T09:10:21;5.00;99.90
11855;DHT22;5987;53.140;8.904;2024-03-08T09:13:30;5.10;99.90
11855;DHT22;5987;53.140;8.904;2024-03-08T09:16:36;5.30;99.90
11855;DHT22;5987;53.140;8.904;2024-03-08T09:19:41;5.10;99.90
11855;DHT22;5987;53.140;8.904;2024-03-08T09:22:45;5.30;99.90
11855;DHT22;5987;53.140;8.904;2024-03-08T09:25:49;5.30;99.90
11855;DHT22;5987;53.140;8.904;2024-03-08T09:28:53;5.40;99.90
11855;DHT22;5987;53.140;8.904;2024-03-08T09:32:23;5.40;99.90
11855;DHT22;5987;53.140;8.904;2024-03-08T09:35:28;5.60;99.90
11855;DHT22;5987;53.140;8.904;2024-03-08T09:38:32;5.60;99.90
11855;DHT22;5987;53.140;8.904;2024-03-08T09:41:36;5.70;99.90
11855;DHT22;5987;53.140;8.904;2024-03-08T09:44:44;5.80;99.90
11855;DHT22;5987;53.140;8.904;2024-03-08T09:47:49;5.80;99.90
11855;DHT22;5987;53.140;8.904;2024-03-08T09:50:54;6.00;99.90
11855;DHT22;5987;53.140;8.904;2024-03-08T09:53:58;6.10;99.90
11855;DHT22;5987;53.140;8.904;2024-03-08T09:57:12;6.20;99.90
11855;DHT22;5987;53.140;8.904;2024-03-08T10:00:19;6.30;99.90
11855;DHT22;5987;53.140;8.904;2024-03-08T10:03:26;6.30;99.90
11855;DHT22;5987;53.140;8.904;2024-03-08T10:06:32;6.30;99.90
11855;DHT22;5987;53.140;8.904;2024-03-08T10:09:35;6.50;99.90
11855;DHT22;5987;53.140;8.904;2024-03-08T10:12:39;6.50;99.90
11855;DHT22;5987;53.140;8.904;2024-03-08T10:15:44;6.80;99.90
11855;DHT22;5987;53.140;8.904;2024-03-08T10:18:48;6.50;99.90
11855;DHT22;5987;53.140;8.904;2024-03-08T10:21:53;6.50;99.90
11855;DHT22;5987;53.140;8.904;2024-03-08T10:24:58;6.50;99.90
11855;DHT22;5987;53.140;8.904;2024-03-08T10:28:04;6.70;99.90
11855;DHT22;5987;53.140;8.904;2024-03-08T10:31:09;6.80;99.90
11855;DHT22;5987;53.140;8.904;2024-03-08T10:34:14;6.90;99.90
11855;DHT22;5987;53.140;8.904;2024-03-08T10:37:21;7.00;99.90
11855;DHT22;5987;53.140;8.904;2024-03-08T10:40:27;7.10;99.90
11855;DHT22;5987;53.140;8.904;2024-03-08T10:43:40;7.10;99.90
11855;DHT22;5987;53.140;8.904;2024-03-08T10:47:01;7.20;99.90
11855;DHT22;5987;53.140;8.904;2024-03-08T10:50:11;7.20;99.90
11855;DHT22;5987;53.140;8.904;2024-03-08T10:53:27;7.30;99.90
11855;DHT22;5987;53.140;8.904;2024-03-08T10:56:31;7.30;99.90
11855;DHT22;5987;53.140;8.904;2024-03-08T10:59:35;7.40;99.90
11855;DHT22;5987;53.140;8.904;2024-03-08T11:02:43;7.50;99.90
11855;DHT22;5987;53.140;8.904;2024-03-08T11:05:47;7.50;99.90
11855;DHT22;5987;53.140;8.904;2024-03-08T11:08:53;7.60;99.90
11855;DHT22;5987;53.140;8.904;2024-03-08T11:12:20;7.70;99.90
11855;DHT22;5987;53.140;8.904;2024-03-08T11:15:29;7.60;99.90
11855;DHT22;5987;53.140;8.904;2024-03-08T11:18:34;7.50;99.90
11855;DHT22;5987;53.140;8.904;2024-03-08T11:21:43;7.50;99.90
11855;DHT22;5987;53.140;8.904;2024-03-08T11:24:48;7.60;99.90
11855;DHT22;5987;53.140;8.904;2024-03-08T11:27:53;7.60;99.90
11855;DHT22;5987;53.140;8.904;2024-03-08T11:31:23;7.70;99.90
11855;DHT22;5987;53.140;8.904;2024-03-08T11:34:29;7.80;99.90
11855;DHT22;5987;53.140;8.904;2024-03-08T11:37:34;7.80;99.90
11855;DHT22;5987;53.140;8.904;2024-03-08T11:40:40;7.80;99.90
11855;DHT22;5987;53.140;8.904;2024-03-08T11:43:45;8.00;99.90
11855;DHT22;5987;53.140;8.904;2024-03-08T11:46:49;8.20;99.90
11855;DHT22;5987;53.140;8.904;2024-03-08T11:49:52;8.10;99.90
11855;DHT22;5987;53.140;8.904;2024-03-08T11:53:01;8.10;99.90
11855;DHT22;5987;53.140;8.904;2024-03-08T11:56:08;8.20;99.90
11855;DHT22;5987;53.140;8.904;2024-03-08T11:59:13;8.30;99.90
11855;DHT22;5987;53.140;8.904;2024-03-08T12:02:17;8.30;99.90
11855;DHT22;5987;53.140;8.904;2024-03-08T12:05:22;8.20;99.90
11855;DHT22;5987;53.140;8.904;2024-03-08T12:08:26;8.30;99.90
11855;DHT22;5987;53.140;8.904;2024-03-08T12:11:33;8.50;99.90
11855;DHT22;5987;53.140;8.904;2024-03-08T12:14:38;8.50;99.90
11855;DHT22;5987;53.140;8.904;2024-03-08T12:17:43;8.60;99.90
11855;DHT22;5987;53.140;8.904;2024-03-08T12:20:50;8.60;99.90
11855;DHT22;5987;53.140;8.904;2024-03-08T12:24:03;8.70;99.90
11855;DHT22;5987;53.140;8.904;2024-03-08T12:27:21;8.80;99.90
11855;DHT22;5987;53.140;8.904;2024-03-08T12:30:26;8.80;99.90
11855;DHT22;5987;53.140;8.904;2024-03-08T12:33:31;8.80;99.90
11855;DHT22;5987;53.140;8.904;2024-03-08T12:36:34;8.90;99.90
11855;DHT22;5987;53.140;8.904;2024-03-08T12:39:41;8.90;99.90
11855;DHT22;5987;53.140;8.904;2024-03-08T12:42:49;8.90;99.90
11855;DHT22;5987;53.140;8.904;2024-03-08T12:45:53;8.80;99.90
11855;DHT22;5987;53.140;8.904;2024-03-08T12:48:57;8.90;99.90
11855;DHT22;5987;53.140;8.904;2024-03-08T12:52:01;8.90;99.90
11855;DHT22;5987;53.140;8.904;2024-03-08T12:55:06;8.90;99.90
11855;DHT22;5987;53.140;8.904;2024-03-08T12:58:12;9.00;99.90
11855;DHT22;5987;53.140;8.904;2024-03-08T13:01:16;9.10;99.90
11855;DHT22;5987;53.140;8.904;2024-03-08T13:04:20;9.10;99.90
11855;DHT22;5987;53.140;8.904;2024-03-08T13:07:24;9.00;99.90
11855;DHT22;5987;53.140;8.904;2024-03-08T13:10:28;9.00;99.90
11855;DHT22;5987;53.140;8.904;2024-03-08T13:13:34;9.10;99.90
11855;DHT22;5987;53.140;8.904;2024-03-08T13:16:38;9.20;99.90
11855;DHT22;5987;53.140;8.904;2024-03-08T13:19:42;9.40;99.90
11855;DHT22;5987;53.140;8.904;2024-03-08T13:22:46;9.60;99.90
11855;DHT22;5987;53.140;8.904;2024-03-08T13:25:50;9.50;99.90
11855;DHT22;5987;53.140;8.904;2024-03-08T13:28:55;9.50;99.90
11855;DHT22;5987;53.140;8.904;2024-03-08T13:32:00;9.60;99.90
11855;DHT22;5987;53.140;8.904;2024-03-08T13:35:05;9.60;99.90
11855;DHT22;5987;53.140;8.904;2024-03-08T13:38:14;9.60;99.90
11855;DHT22;5987;53.140;8.904;2024-03-08T13:41:22;9.50;99.90
11855;DHT22;5987;53.140;8.904;2024-03-08T13:44:28;9.50;99.90
11855;DHT22;5987;53.140;8.904;2024-03-08T13:47:32;9.60;99.90
11855;DHT22;5987;53.140;8.904;2024-03-08T13:50:36;9.60;99.90
11855;DHT22;5987;53.140;8.904;2024-03-08T13:53:40;9.60;99.90
11855;DHT22;5987;53.140;8.904;2024-03-08T13:56:44;9.70;99.90
11855;DHT22;5987;53.140;8.904;2024-03-08T13:59:50;9.70;99.90
11855;DHT22;5987;53.140;8.904;2024-03-08T14:02:53;9.70;99.90
11855;DHT22;5987;53.140;8.904;2024-03-08T14:05:57;9.70;99.90
11855;DHT22;5987;53.140;8.904;2024-03-08T14:09:02;9.80;99.90
11855;DHT22;5987;53.140;8.904;2024-03-08T14:12:06;9.80;99.90
11855;DHT22;5987;53.140;8.904;2024-03-08T14:15:12;9.70;99.90
11855;DHT22;5987;53.140;8.904;2024-03-08T14:18:16;9.60;99.90
11855;DHT22;5987;53.140;8.904;2024-03-08T14:21:19;9.60;99.90
11855;DHT22;5987;53.140;8.904;2024-03-08T14:24:24;9.40;99.90
11855;DHT22;5987;53.140;8.904;2024-03-08T14:27:27;9.50;99.90
11855;DHT22;5987;53.140;8.904;2024-03-08T14:30:33;9.60;99.90
11855;DHT22;5987;53.140;8.904;2024-03-08T14:33:40;9.50;99.90
11855;DHT22;5987;53.140;8.904;2024-03-08T14:36:44;9.60;99.90
11855;DHT22;5987;53.140;8.904;2024-03-08T14:39:48;9.60;99.90
11855;DHT22;5987;53.140;8.904;2024-03-08T14:42:54;9.60;99.90
11855;DHT22;5987;53.140;8.904;2024-03-08T14:45:59;9.70;99.90
11855;DHT22;5987;53.140;8.904;2024-03-08T14:49:05;9.80;99.90
11855;DHT22;5987;53.140;8.904;2024-03-08T14:52:09;9.70;99.90
11855;DHT22;5987;53.140;8.904;2024-03-08T14:55:29;9.60;99.90
11855;DHT22;5987;53.140;8.904;2024-03-08T14:58:33;9.70;99.90
11855;DHT22;5987;53.140;8.904;2024-03-08T15:01:39;9.60;99.90
11855;DHT22;5987;53.140;8.904;2024-03-08T15:04:47;9.60;99.90
11855;DHT22;5987;53.140;8.904;2024-03-08T15:08:00;9.60;99.90
11855;DHT22;5987;53.140;8.904;2024-03-08T15:11:05;9.50;99.90
11855;DHT22;5987;53.140;8.904;2024-03-08T15:14:09;9.40;99.90
11855;DHT22;5987;53.140;8.904;2024-03-08T15:17:15;9.50;99.90
11855;DHT22;5987;53.140;8.904;2024-03-08T15:20:23;9.50;99.90
11855;DHT22;5987;53.140;8.904;2024-03-08T15:23:33;9.40;99.90
11855;DHT22;5987;53.140;8.904;2024-03-08T15:26:37;9.40;99.90
11855;DHT22;5987;53.140;8.904;2024-03-08T15:29:41;9.40;99.90
11855;DHT22;5987;53.140;8.904;2024-03-08T15:32:51;9.30;99.90
11855;DHT22;5987;53.140;8.904;2024-03-08T15:35:59;9.30;99.90
11855;DHT22;5987;53.140;8.904;2024-03-08T15:39:09;9.30;99.90
11855;DHT22;5987;53.140;8.904;2024-03-08T15:42:13;9.30;99.90
11855;DHT22;5987;53.140;8.904;2024-03-08T15:45:26;9.20;99.90
11855;DHT22;5987;53.140;8.904;2024-03-08T15:48:32;9.20;99.90
11855;DHT22;5987;53.140;8.904;2024-03-08T15:51:37;9.20;99.90
11855;DHT22;5987;53.140;8.904;2024-03-08T15:54:43;9.20;99.90
11855;DHT22;5987;53.140;8.904;2024-03-08T15:57:49;9.20;99.90
11855;DHT22;5987;53.140;8.904;2024-03-08T16:00:53;9.20;99.90
11855;DHT22;5987;53.140;8.904;2024-03-08T16:04:00;9.10;99.90
11855;DHT22;5987;53.140;8.904;2024-03-08T16:07:04;9.10;99.90
11855;DHT22;5987;53.140;8.904;2024-03-08T16:10:08;9.00;99.90
11855;DHT22;5987;53.140;8.904;2024-03-08T16:13:13;9.00;99.90
11855;DHT22;5987;53.140;8.904;2024-03-08T16:16:18;8.90;99.90
11855;DHT22;5987;53.140;8.904;2024-03-08T16:19:25;8.90;99.90
11855;DHT22;5987;53.140;8.904;2024-03-08T16:22:29;8.90;99.90
11855;DHT22;5987;53.140;8.904;2024-03-08T16:25:33;8.80;99.90
11855;DHT22;5987;53.140;8.904;2024-03-08T16:28:38;8.80;99.90
11855;DHT22;5987;53.140;8.904;2024-03-08T16:31:44;8.70;99.90
11855;DHT22;5987;53.140;8.904;2024-03-08T16:34:49;8.60;99.90
11855;DHT22;5987;53.140;8.904;2024-03-08T16:37:55;8.60;99.90
11855;DHT22;5987;53.140;8.904;2024-03-08T16:40:59;8.50;99.90
11855;DHT22;5987;53.140;8.904;2024-03-08T16:44:03;8.40;99.90
11855;DHT22;5987;53.140;8.904;2024-03-08T16:47:07;8.50;99.90
11855;DHT22;5987;53.140;8.904;2024-03-08T16:50:16;8.40;99.90
11855;DHT22;5987;53.140;8.904;2024-03-08T16:53:20;8.30;99.90
11855;DHT22;5987;53.140;8.904;2024-03-08T16:56:24;8.20;99.90
11855;DHT22;5987;53.140;8.904;2024-03-08T16:59:28;8.10;99.90
11855;DHT22;5987;53.140;8.904;2024-03-08T17:02:32;8.10;99.90
11855;DHT22;5987;53.140;8.904;2024-03-08T17:05:43;8.00;99.90
11855;DHT22;5987;53.140;8.904;2024-03-08T17:08:57;8.00;99.90
11855;DHT22;5987;53.140;8.904;2024-03-08T17:12:01;7.90;99.90
11855;DHT22;5987;53.140;8.904;2024-03-08T17:15:06;7.90;99.90
11855;DHT22;5987;53.140;8.904;2024-03-08T17:18:13;7.90;99.90
11855;DHT22;5987;53.140;8.904;2024-03-08T17:21:19;7.80;99.90
11855;DHT22;5987;53.140;8.904;2024-03-08T17:24:22;7.70;99.90
11855;DHT22;5987;53.140;8.904;2024-03-08T17:27:27;7.70;99.90
11855;DHT22;5987;53.140;8.904;2024-03-08T17:30:31;7.60;99.90
11855;DHT22;5987;53.140;8.904;2024-03-08T17:33:40;7.60;99.90
11855;DHT22;5987;53.140;8.904;2024-03-08T17:36:46;7.50;99.90
11855;DHT22;5987;53.140;8.904;2024-03-08T17:39:51;7.50;99.90
11855;DHT22;5987;53.140;8.904;2024-03-08T17:42:58;7.40;99.90
11855;DHT22;5987;53.140;8.904;2024-03-08T17:46:03;7.40;99.90
11855;DHT22;5987;53.140;8.904;2024-03-08T17:49:07;7.30;99.90
11855;DHT22;5987;53.140;8.904;2024-03-08T17:52:15;7.20;99.90
11855;DHT22;5987;53.140;8.904;2024-03-08T17:55:19;7.10;99.90
11855;DHT22;5987;53.140;8.904;2024-03-08T17:58:26;7.20;99.90
11855;DHT22;5987;53.140;8.904;2024-03-08T18:01:30;7.10;99.90
11855;DHT22;5987;53.140;8.904;2024-03-08T18:04:35;7.00;99.90
11855;DHT22;5987;53.140;8.904;2024-03-08T18:07:41;7.00;99.90
11855;DHT22;5987;53.140;8.904;2024-03-08T18:10:45;7.00;99.90
11855;DHT22;5987;53.140;8.904;2024-03-08T18:13:51;7.00;99.90
11855;DHT22;5987;53.140;8.904;2024-03-08T18:16:54;7.00;99.90
11855;DHT22;5987;53.140;8.904;2024-03-08T18:19:58;6.90;99.90
11855;DHT22;5987;53.140;8.904;2024-03-08T18:23:04;6.90;99.90
11855;DHT22;5987;53.140;8.904;2024-03-08T18:26:09;6.90;99.90
11855;DHT22;5987;53.140;8.904;2024-03-08T18:29:13;6.90;99.90
11855;DHT22;5987;53.140;8.904;2024-03-08T18:32:18;6.90;99.90
11855;DHT22;5987;53.140;8.904;2024-03-08T18:35:24;6.90;99.90
11855;DHT22;5987;53.140;8.904;2024-03-08T18:38:29;6.90;99.90
11855;DHT22;5987;53.140;8.904;2024-03-08T18:41:33;6.80;99.90
11855;DHT22;5987;53.140;8.904;2024-03-08T18:44:37;6.70;99.90
11855;DHT22;5987;53.140;8.904;2024-03-08T18:47:42;6.70;99.90
11855;DHT22;5987;53.140;8.904;2024-03-08T18:50:48;6.70;99.90
11855;DHT22;5987;53.140;8.904;2024-03-08T18:53:53;6.60;99.90
11855;DHT22;5987;53.140;8.904;2024-03-08T18:56:57;6.60;99.90
11855;DHT22;5987;53.140;8.904;2024-03-08T19:00:02;6.70;99.90
11855;DHT22;5987;53.140;8.904;2024-03-08T19:03:15;6.60;99.90
11855;DHT22;5987;53.140;8.904;2024-03-08T19:06:19;6.60;99.90
11855;DHT22;5987;53.140;8.904;2024-03-08T19:09:25;6.60;99.90
11855;DHT22;5987;53.140;8.904;2024-03-08T19:12:29;6.60;99.90
11855;DHT22;5987;53.140;8.904;2024-03-08T19:15:35;6.50;99.90
11855;DHT22;5987;53.140;8.904;2024-03-08T19:18:40;6.50;99.90
11855;DHT22;5987;53.140;8.904;2024-03-08T19:21:44;6.40;99.90
11855;DHT22;5987;53.140;8.904;2024-03-08T19:24:50;6.40;99.90
11855;DHT22;5987;53.140;8.904;2024-03-08T19:27:55;6.40;99.90
11855;DHT22;5987;53.140;8.904;2024-03-08T19:31:01;6.40;99.90
11855;DHT22;5987;53.140;8.904;2024-03-08T19:34:06;6.40;99.90
11855;DHT22;5987;53.140;8.904;2024-03-08T19:37:10;6.30;99.90
11855;DHT22;5987;53.140;8.904;2024-03-08T19:40:16;6.40;99.90
11855;DHT22;5987;53.140;8.904;2024-03-08T19:43:23;6.40;99.90
11855;DHT22;5987;53.140;8.904;2024-03-08T19:46:29;6.40;99.90
11855;DHT22;5987;53.140;8.904;2024-03-08T19:49:40;6.30;99.90
11855;DHT22;5987;53.140;8.904;2024-03-08T19:52:44;6.40;99.90
11855;DHT22;5987;53.140;8.904;2024-03-08T19:55:54;6.40;99.90
11855;DHT22;5987;53.140;8.904;2024-03-08T19:59:00;6.30;99.90
11855;DHT22;5987;53.140;8.904;2024-03-08T20:02:04;6.30;99.90
11855;DHT22;5987;53.140;8.904;2024-03-08T20:05:08;6.30;99.90
11855;DHT22;5987;53.140;8.904;2024-03-08T20:08:14;6.30;99.90
11855;DHT22;5987;53.140;8.904;2024-03-08T20:11:22;6.30;99.90